• Join FlightAware (Why Join?)
  • Login
  • US Flag 
03:27PM EDT


 

Airport Tracker/Info


-or-


 

Live Flight TrackerFlight Track Log ✈ UPS1121 ✈ 20-Jun-2013 ✈ KBDL - KPHL

Flight Track Log - Related Links

Times and Time Zones

All times are in EDT time to prevent confusion due to time zone crossing. See the UPS1121 flight status page for this flight to view local times or setup timezone preferences in your user account.

Time Position Orientation Groundspeed Altitude Reporting Facility
EDT Latitude Longitude Course Direction KTS MPH feet Rate Location/Type
09:53PM 41.9375 -72.6942 228° Southwest 130 150 1,000  Level Boston Center
09:54PM 41.9228 -72.7164 228° Southwest 156 180 2,300 2,820 Climbing Boston Center
09:55PM 41.8831 -72.7383 202° Southwest 204 235 4,800 2,580 Climbing Boston Center
10:00PM 41.4200 -72.3710 202° Southwest 412 474 19,300 2,340 Climbing FlightAware
10:01PM 41.3410 -72.3540 171° South 409 471 20,000 480 Climbing FlightAware
10:02PM 41.2700 -72.3620 185° South 391 450 20,000  Level FlightAware
10:02PM 41.2180 -72.4080 214° Southwest 393 452 20,000  Level FlightAware
10:03PM 41.1380 -72.4870 217° Southwest 437 503 20,000  Level FlightAware
10:04PM 41.0658 -72.5773 223° Southwest 445 512 20,000  Level FlightAware ADS-B
10:05PM 41.0101 -72.6475 224° Southwest 444 511 20,000  Level FlightAware ADS-B
10:05PM 40.9592 -72.7090 222° Southwest 445 512 20,000  Level FlightAware ADS-B
10:06PM 40.9129 -72.7545 217° Southwest 443 510 20,000  Level FlightAware ADS-B
10:06PM 40.8601 -72.7970 211° Southwest 443 510 20,000  Level FlightAware ADS-B
10:07PM 40.8064 -72.8385 210° Southwest 443 510 20,000  Level FlightAware ADS-B
10:07PM 40.7380 -72.8922 211° Southwest 444 511 20,000  Level FlightAware ADS-B
10:08PM 40.6869 -72.9326 211° Southwest 446 513 20,000  Level FlightAware ADS-B
10:08PM 40.6320 -72.9758 211° Southwest 447 514 20,000  Level FlightAware ADS-B
10:09PM 40.5780 -73.0182 211° Southwest 447 514 20,000  Level FlightAware ADS-B
10:09PM 40.5249 -73.0599 211° Southwest 446 513 20,000  Level FlightAware ADS-B
10:10PM 40.4718 -73.1014 211° Southwest 446 513 20,000  Level FlightAware ADS-B
10:10PM 40.4170 -73.1443 211° Southwest 446 513 20,000  Level FlightAware ADS-B
10:11PM 40.3457 -73.1999 211° Southwest 447 514 20,000  Level FlightAware ADS-B
10:11PM 40.2815 -73.2498 211° Southwest 447 514 20,000  Level FlightAware ADS-B
10:12PM 40.2246 -73.2938 211° Southwest 447 514 20,000  Level FlightAware ADS-B
10:13PM 40.1703 -73.3358 211° Southwest 447 514 20,000  Level FlightAware ADS-B
10:13PM 40.1120 -73.3807 211° Southwest 446 513 20,000  Level FlightAware ADS-B
10:14PM 40.0572 -73.4229 211° Southwest 447 514 20,000  Level FlightAware ADS-B
10:14PM 40.0017 -73.4657 211° Southwest 447 514 20,000  Level FlightAware ADS-B
10:14PM 39.9769 -73.4877 214° Southwest 445 512 20,000  Level FlightAware ADS-B
10:15PM 39.9473 -73.5192 219° Southwest 444 511 20,000  Level FlightAware ADS-B
10:15PM 39.9047 -73.5773 226° Southwest 442 509 20,000  Level FlightAware ADS-B
10:16PM 39.8614 -73.6414 229° Southwest 441 507 20,000  Level FlightAware ADS-B
10:16PM 39.8203 -73.7022 229° Southwest 440 506 20,000  Level FlightAware ADS-B
10:17PM 39.7797 -73.7620 229° Southwest 439 505 20,000 -120 Level FlightAware ADS-B
10:17PM 39.7355 -73.8272 229° Southwest 439 505 19,900 -900 Descending FlightAware ADS-B
10:18PM 39.6943 -73.8877 229° Southwest 443 510 19,100 -1,920 Descending FlightAware ADS-B
10:18PM 39.6518 -73.9500 228° Southwest 424 488 17,900 -2,520 Descending FlightAware ADS-B
10:19PM 39.6134 -74.0061 228° Southwest 409 471 16,500 -2,880 Descending FlightAware ADS-B
10:19PM 39.5730 -74.0653 228° Southwest 402 463 14,900 -2,880 Descending FlightAware ADS-B
10:20PM 39.5524 -74.0958 229° Southwest 396 456 14,100 -2,040 Descending FlightAware ADS-B
10:20PM 39.5395 -74.1212 237° Southwest 399 459 13,900 -960 Descending FlightAware ADS-B
10:20PM 39.5341 -74.1364 245° Southwest 402 463 13,800 -600 Descending FlightAware ADS-B
10:20PM 39.5310 -74.1477 250° West 401 461 13,800 -420 Level FlightAware ADS-B
10:20PM 39.5272 -74.1692 257° West 400 460 13,700 -240 Descending FlightAware ADS-B
10:20PM 39.5257 -74.2043 267° West 397 457 13,700 -720 Level FlightAware ADS-B
10:21PM 39.5268 -74.2762 271° West 390 449 13,200 -2,100 Descending FlightAware ADS-B
10:22PM 39.5285 -74.3542 272° West 386 444 11,500 -2,760 Descending FlightAware ADS-B
10:22PM 39.5298 -74.4230 271° West 370 426 10,300 -1,200 Descending FlightAware ADS-B
10:23PM 39.5310 -74.4950 271° West 331 381 10,200 -240 Descending FlightAware ADS-B
10:23PM 39.5319 -74.5541 271° West 296 341 10,100 -360 Descending FlightAware ADS-B
10:23PM 39.5325 -74.5851 271° West 281 323 9,900 -1,140 Descending FlightAware ADS-B
10:24PM 39.5331 -74.6104 272° West 279 321 9,500 -1,500 Descending FlightAware ADS-B
10:24PM 39.5337 -74.6394 272° West 279 321 9,100 -1,500 Descending FlightAware ADS-B
10:24PM 39.5341 -74.6652 271° West 280 322 8,700 -840 Descending FlightAware ADS-B
10:24PM 39.5344 -74.6908 271° West 282 325 8,700  Level FlightAware ADS-B
10:25PM 39.5349 -74.7135 272° West 283 326 8,700  Level FlightAware ADS-B
10:25PM 39.5357 -74.7395 272° West 281 323 8,700  Level FlightAware ADS-B
10:25PM 39.5363 -74.7664 272° West 280 322 8,700  Level FlightAware ADS-B
10:25PM 39.5366 -74.7911 271° West 281 323 8,700  Level FlightAware ADS-B
10:26PM 39.5367 -74.8172 270° West 280 322 8,700  Level FlightAware ADS-B
10:26PM 39.5368 -74.8430 270° West 281 323 8,700  Level FlightAware ADS-B
10:26PM 39.5369 -74.8691 270° West 281 323 8,700  Level FlightAware ADS-B
10:26PM 39.5369 -74.8948 270° West 281 323 8,700  Level FlightAware ADS-B
10:27PM 39.5372 -74.9226 271° West 281 323 8,700  Level FlightAware ADS-B
10:27PM 39.5396 -74.9508 276° West 282 325 8,700  Level FlightAware ADS-B
10:27PM 39.5470 -74.9706 296° West 282 325 8,700  Level FlightAware ADS-B
10:27PM 39.5504 -74.9759 310° West 283 326 8,700  Level FlightAware ADS-B
10:27PM 39.5549 -74.9816 316° Northwest 283 326 8,700  Level FlightAware ADS-B
10:28PM 39.5659 -74.9919 324° Northwest 285 328 8,700  Level FlightAware ADS-B
10:28PM 39.5828 -75.0063 327° Northwest 285 328 8,700 -660 Level FlightAware ADS-B
10:28PM 39.6100 -75.0287 328° Northwest 277 319 8,300 -1,260 Descending FlightAware ADS-B
10:28PM 39.6265 -75.0425 327° Northwest 276 318 7,900 -1,380 Descending FlightAware ADS-B
10:29PM 39.6422 -75.0559 327° Northwest 276 318 7,600 -1,440 Descending FlightAware ADS-B
10:29PM 39.6486 -75.0610 328° Northwest 276 318 7,400 -1,380 Descending FlightAware ADS-B
10:30PM 39.7033 -75.0758 348° North 278 320 6,500 -1,260 Descending FlightAware ADS-B
10:30PM 39.7221 -75.0779 355° North 268 308 6,200 -1,800 Descending FlightAware ADS-B
10:30PM 39.7418 -75.0796 356° North 260 299 5,600 -2,100 Descending FlightAware ADS-B
10:30PM 39.7463 -75.0791 North 258 297 5,500 -2,220 Descending FlightAware ADS-B
10:30PM 39.7537 -75.0767 14° North 257 296 5,200 -2,280 Descending FlightAware ADS-B
10:30PM 39.7639 -75.0696 28° Northeast 255 293 4,900 -2,580 Descending FlightAware ADS-B
10:31PM 39.7770 -75.0507 48° Northeast 255 293 4,100 -2,760 Descending FlightAware ADS-B
10:31PM 39.7829 -75.0427 46° Northeast 258 297 3,800 -2,520 Descending FlightAware ADS-B
10:31PM 39.7871 -75.0385 38° Northeast 259 298 3,600 -2,280 Descending FlightAware ADS-B
10:31PM 39.7904 -75.0360 30° Northeast 258 297 3,500 -2,280 Descending FlightAware ADS-B
10:31PM 39.7959 -75.0329 23° Northeast 257 296 3,300 -2,040 Descending FlightAware ADS-B
10:31PM 39.8009 -75.0309 17° North 255 293 3,200 -1,620 Descending FlightAware ADS-B
10:31PM 39.8135 -75.0296 North 246 283 2,900 -1,620 Descending FlightAware ADS-B
10:31PM 39.8229 -75.0307 355° North 239 275 2,700 -540 Descending FlightAware ADS-B
10:32PM 39.8388 -75.0333 353° North 219 252 2,700 -420 Level FlightAware ADS-B
10:32PM 39.8671 -75.0419 347° North 194 223 2,400 -720 Descending FlightAware ADS-B
10:32PM 39.8770 -75.0499 328° Northwest 177 204 2,200 -1,200 Descending FlightAware ADS-B
10:33PM 39.8815 -75.0549 320° Northwest 173 199 2,000 -1,140 Descending FlightAware ADS-B
10:33PM 39.8835 -75.0575 315° West 170 196 2,000 -780 Level FlightAware ADS-B
10:33PM 39.8859 -75.0609 313° West 168 193 1,900 -1,500 Descending FlightAware ADS-B
10:33PM 39.8874 -75.0638 304° West 169 194 1,800 -780 Descending FlightAware ADS-B
10:33PM 39.8888 -75.0674 297° West 167 192 1,800  Level FlightAware ADS-B
10:33PM 39.8903 -75.0733 288° West 166 191 1,800  Level FlightAware ADS-B
10:33PM 39.8908 -75.0762 283° West 165 190 1,800  Level FlightAware ADS-B
10:33PM 39.8915 -75.0817 279° West 163 188 1,800 420 Level FlightAware ADS-B
10:33PM 39.8920 -75.0898 275° West 161 185 1,900  Climbing FlightAware ADS-B
10:33PM 39.8922 -75.0980 272° West 156 180 1,800 -720 Descending FlightAware ADS-B